createdAt,value
2023-03-01T00:01:06.547Z,9.55
2023-03-01T00:03:34.019Z,12.43
2023-03-01T00:06:03.831Z,11.73
2023-03-01T00:08:34.127Z,12.13
2023-03-01T00:13:30.669Z,10.10
2023-03-01T00:15:57.803Z,12.25
2023-03-01T00:18:25.032Z,11.23
2023-03-01T00:20:53.247Z,11.55
2023-03-01T00:23:20.464Z,10.07
2023-03-01T00:25:47.711Z,10.68
2023-03-01T00:28:17.180Z,11.98
2023-03-01T00:30:44.366Z,10.32
2023-03-01T00:33:13.730Z,10.52
2023-03-01T00:35:40.949Z,12.20
2023-03-01T00:38:08.043Z,12.18
2023-03-01T00:40:36.146Z,13.88
2023-03-01T00:43:05.930Z,15.20
2023-03-01T00:45:34.193Z,11.48
2023-03-01T00:48:01.255Z,11.77
2023-03-01T00:50:28.346Z,10.48
2023-03-01T00:52:55.993Z,10.25
2023-03-01T00:55:26.092Z,12.35
2023-03-01T00:57:53.449Z,12.15
2023-03-01T01:00:25.020Z,11.48
2023-03-01T01:02:51.753Z,14.32
2023-03-01T01:05:21.859Z,10.77
2023-03-01T01:07:49.372Z,12.00
2023-03-01T01:10:17.933Z,11.98
2023-03-01T01:12:49.154Z,10.20
2023-03-01T01:15:17.451Z,12.20
2023-03-01T01:17:44.721Z,10.80
2023-03-01T01:20:12.141Z,10.80
2023-03-01T01:22:39.228Z,11.60
2023-03-01T01:25:06.509Z,11.25
2023-03-01T01:27:33.608Z,11.88
2023-03-01T01:30:00.672Z,13.60
2023-03-01T01:32:27.557Z,10.88
2023-03-01T01:34:54.265Z,11.73
2023-03-01T01:37:21.153Z,10.55
2023-03-01T01:39:47.948Z,11.40
2023-03-01T01:42:19.509Z,9.70
2023-03-01T01:44:49.221Z,10.85
2023-03-01T01:47:19.820Z,11.05
2023-03-01T01:49:57.076Z,9.52
2023-03-01T01:52:32.710Z,9.52
2023-03-01T01:55:15.811Z,13.13
2023-03-01T01:57:52.754Z,10.63
2023-03-01T02:00:23.171Z,11.57
2023-03-01T02:02:55.922Z,10.55
2023-03-01T02:05:38.118Z,9.93
2023-03-01T02:08:08.435Z,9.77
2023-03-01T02:10:36.004Z,9.63
2023-03-01T02:13:04.522Z,10.05
2023-03-01T02:15:36.140Z,11.82
2023-03-01T02:18:04.148Z,10.60
2023-03-01T02:20:30.771Z,21.33
2023-03-01T02:23:00.904Z,12.63
2023-03-01T02:26:00.470Z,11.00
2023-03-01T02:28:30.430Z,12.75
2023-03-01T02:31:15.715Z,14.23
2023-03-01T02:33:43.857Z,12.55
2023-03-01T02:36:16.182Z,11.38
2023-03-01T02:38:43.260Z,11.70
2023-03-01T02:41:12.527Z,11.57
2023-03-01T02:43:39.275Z,12.57
2023-03-01T02:46:18.598Z,11.85
2023-03-01T02:48:51.302Z,10.83
2023-03-01T02:51:24.755Z,11.52
2023-03-01T02:54:04.425Z,10.80
2023-03-01T02:56:31.474Z,10.90
2023-03-01T02:59:01.623Z,14.23
2023-03-01T03:01:37.484Z,12.18
2023-03-01T03:04:09.243Z,11.05
2023-03-01T03:06:38.632Z,10.82
2023-03-01T03:09:06.075Z,10.90
2023-03-01T03:11:33.351Z,11.43
2023-03-01T03:14:02.486Z,12.50
2023-03-01T03:16:30.931Z,12.00
2023-03-01T03:19:05.963Z,12.35
2023-03-01T03:21:33.948Z,10.75
2023-03-01T03:24:03.038Z,12.68
2023-03-01T03:26:30.747Z,11.27
2023-03-01T03:28:58.017Z,12.20
2023-03-01T03:31:27.348Z,11.18
2023-03-01T03:33:54.142Z,12.30
2023-03-01T03:36:23.505Z,11.95
2023-03-01T03:38:50.522Z,10.40
2023-03-01T03:41:17.662Z,12.07
2023-03-01T03:43:44.901Z,10.82
2023-03-01T03:46:12.747Z,10.63
2023-03-01T03:48:46.855Z,12.27
2023-03-01T03:51:15.660Z,11.98
2023-03-01T03:53:43.145Z,11.02
2023-03-01T03:56:13.205Z,9.45
2023-03-01T03:58:39.937Z,11.75
2023-03-01T04:01:06.741Z,11.68
2023-03-01T04:03:35.949Z,9.73
2023-03-01T04:06:03.541Z,10.63
2023-03-01T04:08:30.422Z,9.63
2023-03-01T04:11:22.992Z,10.07
2023-03-01T04:13:50.151Z,12.05
2023-03-01T04:16:17.910Z,13.40
2023-03-01T04:18:47.433Z,15.32
2023-03-01T04:21:14.598Z,15.98
2023-03-01T04:23:41.943Z,12.35
2023-03-01T04:26:11.344Z,13.02
2023-03-01T04:28:43.944Z,13.07
2023-03-01T04:31:18.387Z,13.60
2023-03-01T04:33:55.123Z,18.05
2023-03-01T04:36:30.370Z,11.77
2023-03-01T04:38:57.656Z,13.25
2023-03-01T04:41:26.465Z,12.57
2023-03-01T04:43:53.357Z,11.15
2023-03-01T04:46:21.740Z,14.48
2023-03-01T04:48:50.786Z,13.60
2023-03-01T04:51:19.277Z,17.25
2023-03-01T04:53:46.209Z,12.73
2023-03-01T04:56:14.753Z,12.15
2023-03-01T04:58:41.680Z,12.68
2023-03-01T05:01:17.564Z,11.55
2023-03-01T05:03:52.674Z,12.35
2023-03-01T05:06:20.651Z,13.40
2023-03-01T05:08:47.325Z,18.52
2023-03-01T05:11:14.142Z,11.85
2023-03-01T05:13:43.384Z,10.93
2023-03-01T05:16:13.470Z,14.65
2023-03-01T05:21:13.925Z,15.30
2023-03-01T05:23:40.755Z,12.02
2023-03-01T05:26:25.829Z,13.38
2023-03-01T05:28:57.770Z,10.77
2023-03-01T05:31:26.859Z,12.52
2023-03-01T05:33:53.844Z,12.30
2023-03-01T05:36:20.568Z,12.02
2023-03-01T05:38:47.241Z,11.70
2023-03-01T05:41:17.951Z,11.25
2023-03-01T05:43:45.920Z,12.98
2023-03-01T05:46:14.234Z,11.98
2023-03-01T05:48:41.147Z,13.02
2023-03-01T05:51:07.988Z,12.68
2023-03-01T05:53:37.056Z,15.70
2023-03-01T05:56:09.110Z,12.75
2023-03-01T05:58:39.673Z,11.80
2023-03-01T06:01:15.293Z,11.60
2023-03-01T06:03:42.199Z,12.90
2023-03-01T06:06:08.979Z,10.43
2023-03-01T06:08:35.653Z,15.38
2023-03-01T06:11:04.966Z,14.48
2023-03-01T06:13:31.653Z,11.97
2023-03-01T06:15:58.390Z,11.93
2023-03-01T06:18:25.106Z,13.23
2023-03-01T06:20:58.286Z,15.15
2023-03-01T06:23:25.811Z,14.68
2023-03-01T06:25:53.028Z,13.88
2023-03-01T06:28:20.309Z,13.15
2023-03-01T06:30:47.420Z,13.43
2023-03-01T06:33:14.602Z,16.08
2023-03-01T06:35:41.736Z,14.38
2023-03-01T06:38:08.824Z,12.13
2023-03-01T06:40:36.314Z,14.52
2023-03-01T06:43:03.505Z,11.68
2023-03-01T06:45:30.648Z,12.15
2023-03-01T06:48:10.406Z,12.93
2023-03-01T06:50:37.627Z,13.18
2023-03-01T06:53:04.740Z,13.93
2023-03-01T06:55:31.908Z,11.88
2023-03-01T06:58:02.542Z,15.52
2023-03-01T07:00:29.893Z,13.10
2023-03-01T07:02:59.670Z,12.57
2023-03-01T07:05:28.988Z,16.48
2023-03-01T07:08:01.403Z,14.77
2023-03-01T07:10:28.497Z,13.43
2023-03-01T07:12:58.942Z,12.68
2023-03-01T07:15:26.379Z,12.98
2023-03-01T07:17:53.531Z,12.70
2023-03-01T07:20:25.378Z,14.77
2023-03-01T07:22:53.456Z,15.43
2023-03-01T07:25:20.565Z,14.13
2023-03-01T07:27:51.969Z,15.38
2023-03-01T07:30:19.141Z,13.90
2023-03-01T07:32:46.672Z,14.27
2023-03-01T07:35:13.908Z,15.27
2023-03-01T07:37:43.637Z,19.02
2023-03-01T07:40:11.298Z,12.93
2023-03-01T07:42:38.412Z,16.00
2023-03-01T07:45:06.462Z,16.92
2023-03-01T07:47:35.779Z,12.93
2023-03-01T07:50:03.489Z,14.07
2023-03-01T07:52:30.658Z,16.02
2023-03-01T07:54:57.782Z,15.13
2023-03-01T07:57:24.732Z,16.05
2023-03-01T07:59:51.447Z,16.38
2023-03-01T08:02:20.472Z,13.95
2023-03-01T08:04:47.606Z,12.35
2023-03-01T08:07:14.715Z,15.20
2023-03-01T08:09:41.754Z,17.27
2023-03-01T08:12:09.283Z,13.80
2023-03-01T08:14:36.527Z,18.67
2023-03-01T08:17:04.165Z,16.33
2023-03-01T08:19:34.156Z,18.55
2023-03-01T08:22:01.329Z,12.45
2023-03-01T08:24:30.617Z,14.38
2023-03-01T08:26:57.317Z,14.97
2023-03-01T08:29:26.337Z,17.65
2023-03-01T08:31:53.152Z,17.30
2023-03-01T08:34:22.371Z,15.95
2023-03-01T08:36:49.282Z,15.38
2023-03-01T08:39:21.570Z,15.18
2023-03-01T08:41:48.636Z,18.98
2023-03-01T08:44:17.662Z,18.15
2023-03-01T08:46:48.016Z,18.00
2023-03-01T08:51:48.374Z,18.33
2023-03-01T08:54:21.124Z,16.52
2023-03-01T08:56:48.285Z,16.98
2023-03-01T08:59:19.032Z,14.05
2023-03-01T09:01:45.706Z,15.40
2023-03-01T09:04:13.591Z,17.90
2023-03-01T09:06:40.342Z,18.17
2023-03-01T09:09:16.473Z,17.90
2023-03-01T09:11:44.604Z,16.05
2023-03-01T09:14:15.681Z,19.33
2023-03-01T09:16:42.937Z,13.95
2023-03-01T09:19:09.701Z,13.90
2023-03-01T09:21:40.680Z,13.68
2023-03-01T09:24:14.657Z,15.07
2023-03-01T09:26:44.287Z,17.15
2023-03-01T09:29:11.328Z,12.75
2023-03-01T09:31:38.723Z,15.60
2023-03-01T09:34:08.339Z,14.85
2023-03-01T09:36:38.849Z,15.10
2023-03-01T09:39:06.947Z,12.93
2023-03-01T09:41:46.054Z,14.75
2023-03-01T09:44:45.708Z,13.98
2023-03-01T09:47:19.450Z,11.27
2023-03-01T09:50:01.115Z,13.90
2023-03-01T09:52:41.462Z,12.18
2023-03-01T09:55:17.602Z,13.05
2023-03-01T09:57:52.212Z,12.73
2023-03-01T10:00:40.654Z,12.02
2023-03-01T10:03:40.042Z,12.82
2023-03-01T10:06:23.979Z,12.93
2023-03-01T10:09:17.562Z,14.80
2023-03-01T10:11:49.604Z,11.93
2023-03-01T10:14:24.913Z,15.15
2023-03-01T10:16:55.009Z,15.68
2023-03-01T10:19:28.839Z,11.90
2023-03-01T10:21:56.879Z,16.17
2023-03-01T10:24:26.311Z,13.30
2023-03-01T10:27:01.706Z,12.65
2023-03-01T10:29:35.456Z,13.82
2023-03-01T10:32:10.361Z,14.32
2023-03-01T10:34:39.785Z,12.38
2023-03-01T10:37:19.233Z,13.40
2023-03-01T10:39:57.012Z,10.57
2023-03-01T10:42:27.760Z,11.50
2023-03-01T10:44:54.848Z,12.48
2023-03-01T10:47:23.253Z,11.57
2023-03-01T10:50:13.097Z,12.68
2023-03-01T10:52:42.915Z,15.20
2023-03-01T10:55:10.003Z,11.48
2023-03-01T10:57:44.256Z,14.00
2023-03-01T11:00:20.770Z,12.30
2023-03-01T11:02:54.361Z,13.60
2023-03-01T11:05:24.940Z,11.93
2023-03-01T11:07:57.394Z,12.13
2023-03-01T11:10:25.847Z,12.93
2023-03-01T11:12:58.477Z,13.48
2023-03-01T11:15:27.402Z,12.95
2023-03-01T11:18:09.079Z,14.45
2023-03-01T11:20:40.939Z,12.02
2023-03-01T11:23:11.825Z,16.08
2023-03-01T11:25:40.985Z,13.07
2023-03-01T11:28:09.629Z,15.68
2023-03-01T11:31:08.828Z,12.50
2023-03-01T11:33:49.187Z,14.13
2023-03-01T11:36:25.461Z,11.02
2023-03-01T11:38:53.117Z,12.63
2023-03-01T11:41:23.027Z,12.13
2023-03-01T11:43:53.625Z,12.75
2023-03-01T11:46:33.207Z,13.02
2023-03-01T11:49:11.835Z,11.07
2023-03-01T11:51:59.440Z,9.32
2023-03-01T11:54:49.570Z,12.18
2023-03-01T11:57:43.318Z,10.73
2023-03-01T12:00:11.503Z,10.27
2023-03-01T12:02:38.564Z,10.20
2023-03-01T12:05:24.334Z,9.50
2023-03-01T12:08:11.765Z,9.63
2023-03-01T12:10:50.893Z,10.65
2023-03-01T12:13:24.012Z,8.77
2023-03-01T12:15:51.094Z,9.10
2023-03-01T12:18:28.205Z,9.68
2023-03-01T12:21:19.967Z,8.25
2023-03-01T12:24:13.206Z,9.27
2023-03-01T12:26:48.705Z,12.02
2023-03-01T12:29:15.819Z,8.82
2023-03-01T12:31:48.253Z,8.35
2023-03-01T12:34:34.284Z,10.73
2023-03-01T12:37:04.351Z,8.45
2023-03-01T12:42:13.418Z,9.02
2023-03-01T12:44:44.895Z,8.13
2023-03-01T12:47:12.026Z,10.10
2023-03-01T12:49:44.834Z,8.57
2023-03-01T12:52:12.043Z,8.95
2023-03-01T12:54:39.183Z,7.55
2023-03-01T12:57:38.075Z,10.23
2023-03-01T13:00:19.609Z,9.80
2023-03-01T13:02:50.423Z,11.52
2023-03-01T13:05:20.322Z,8.40
2023-03-01T13:08:05.914Z,8.13
2023-03-01T13:10:41.063Z,7.35
2023-03-01T13:13:21.813Z,7.53
2023-03-01T13:15:49.680Z,8.35
2023-03-01T13:18:20.307Z,8.00
2023-03-01T13:20:48.924Z,7.05
2023-03-01T13:23:22.420Z,6.97
2023-03-01T13:25:58.588Z,11.10
2023-03-01T13:28:43.742Z,5.78
2023-03-01T13:31:16.914Z,9.38
2023-03-01T13:33:46.300Z,9.63
2023-03-01T13:36:30.326Z,9.63
2023-03-01T13:39:00.549Z,9.75
2023-03-01T13:41:40.159Z,6.60
2023-03-01T13:44:14.661Z,13.55
2023-03-01T13:46:41.940Z,8.15
2023-03-01T13:49:13.460Z,9.15
2023-03-01T13:51:40.607Z,8.20
2023-03-01T13:54:12.424Z,7.93
2023-03-01T13:56:39.993Z,7.95
2023-03-01T13:59:18.804Z,6.68
2023-03-01T14:01:53.199Z,8.05
2023-03-01T14:04:26.713Z,7.75
2023-03-01T14:06:54.139Z,7.22
2023-03-01T14:09:26.753Z,7.50
2023-03-01T14:12:08.967Z,6.35
2023-03-01T14:14:48.151Z,6.47
2023-03-01T14:17:36.639Z,8.53
2023-03-01T14:20:09.904Z,5.80
2023-03-01T14:22:37.594Z,7.70
2023-03-01T14:25:09.889Z,5.30
2023-03-01T14:27:40.380Z,6.10
2023-03-01T14:30:42.548Z,8.23
2023-03-01T14:33:31.546Z,7.32
2023-03-01T14:36:25.600Z,6.50
2023-03-01T14:38:52.741Z,6.38
2023-03-01T14:41:23.174Z,5.57
2023-03-01T14:43:56.835Z,4.93
2023-03-01T14:46:26.271Z,6.60
2023-03-01T14:48:54.889Z,5.18
2023-03-01T14:51:22.253Z,6.45
2023-03-01T14:53:51.760Z,5.78
2023-03-01T14:56:19.821Z,5.95
2023-03-01T14:58:50.190Z,4.82
2023-03-01T15:01:18.446Z,5.90
2023-03-01T15:03:46.907Z,3.35
2023-03-01T15:06:16.568Z,4.85
2023-03-01T15:11:33.973Z,6.10
2023-03-01T15:14:01.563Z,4.50
2023-03-01T15:16:28.932Z,5.43
2023-03-01T15:18:57.601Z,4.55
2023-03-01T15:21:29.949Z,4.80
2023-03-01T15:24:02.103Z,4.55
2023-03-01T15:26:31.145Z,6.80
2023-03-01T15:28:59.782Z,8.25
2023-03-01T15:31:28.524Z,5.53
2023-03-01T15:34:09.685Z,5.82
2023-03-01T15:36:43.068Z,5.30
2023-03-01T15:39:29.254Z,4.22
2023-03-01T15:41:56.424Z,5.18
2023-03-01T15:44:35.030Z,5.97
2023-03-01T15:47:24.379Z,4.80
2023-03-01T15:49:56.089Z,5.43
2023-03-01T15:52:29.676Z,5.25
2023-03-01T15:55:10.304Z,5.85
2023-03-01T15:57:37.410Z,6.60
2023-03-01T16:00:12.172Z,5.68
2023-03-01T16:02:39.720Z,6.00
2023-03-01T16:05:09.934Z,5.10
2023-03-01T16:07:40.610Z,4.68
2023-03-01T16:10:08.271Z,4.60
2023-03-01T16:12:37.588Z,6.32
2023-03-01T16:15:05.325Z,7.40
2023-03-01T16:17:32.400Z,5.15
2023-03-01T16:19:59.618Z,5.45
2023-03-01T16:22:28.138Z,6.10
2023-03-01T16:24:55.222Z,5.20
2023-03-01T16:27:21.966Z,6.72
2023-03-01T16:29:50.874Z,5.63
2023-03-01T16:32:18.030Z,5.90
2023-03-01T16:34:50.253Z,5.13
2023-03-01T16:37:17.985Z,5.30
2023-03-01T16:39:48.028Z,5.55
2023-03-01T16:44:44.573Z,4.90
2023-03-01T16:47:11.708Z,5.20
2023-03-01T16:49:43.585Z,5.45
2023-03-01T16:52:10.874Z,4.75
2023-03-01T16:54:38.008Z,6.40
2023-03-01T16:57:05.612Z,4.95
2023-03-01T16:59:32.720Z,4.20
2023-03-01T17:02:02.377Z,8.38
2023-03-01T17:04:31.689Z,11.52
2023-03-01T17:06:58.854Z,4.93
2023-03-01T17:09:25.976Z,5.07
2023-03-01T17:11:53.149Z,7.40
2023-03-01T17:14:20.236Z,5.10
2023-03-01T17:16:47.630Z,5.10
2023-03-01T17:19:18.767Z,5.47
2023-03-01T17:21:46.086Z,4.03
2023-03-01T17:24:16.189Z,5.30
2023-03-01T17:26:43.360Z,5.72
2023-03-01T17:29:10.629Z,8.82
2023-03-01T17:31:40.089Z,6.07
2023-03-01T17:34:07.243Z,5.60
2023-03-01T17:36:44.174Z,9.57
2023-03-01T17:39:11.980Z,6.35
2023-03-01T17:41:39.115Z,6.03
2023-03-01T17:44:06.267Z,5.78
2023-03-01T17:46:33.512Z,7.20
2023-03-01T17:49:00.678Z,8.75
2023-03-01T17:51:30.413Z,5.90
2023-03-01T17:53:57.858Z,7.60
2023-03-01T17:56:28.338Z,7.60
2023-03-01T17:58:55.487Z,8.68
2023-03-01T18:01:23.490Z,6.40
2023-03-01T18:03:54.359Z,8.35
2023-03-01T18:06:23.681Z,8.57
2023-03-01T18:08:51.202Z,7.90
2023-03-01T18:11:21.923Z,17.63
2023-03-01T18:13:51.399Z,8.07
2023-03-01T18:16:19.777Z,8.15
2023-03-01T18:18:49.386Z,7.40
2023-03-01T18:21:17.351Z,8.13
2023-03-01T18:23:44.494Z,6.88
2023-03-01T18:26:13.067Z,5.57
2023-03-01T18:28:40.226Z,6.95
2023-03-01T18:31:13.877Z,6.25
2023-03-01T18:33:41.329Z,7.32
2023-03-01T18:36:16.666Z,6.68
2023-03-01T18:38:44.025Z,9.25
2023-03-01T18:41:11.135Z,6.43
2023-03-01T18:43:38.372Z,6.53
2023-03-01T18:46:05.849Z,6.50
2023-03-01T18:48:33.035Z,6.20
2023-03-01T18:51:08.087Z,8.00
2023-03-01T18:53:35.279Z,10.27
2023-03-01T18:56:02.516Z,7.65
2023-03-01T18:58:29.824Z,10.05
2023-03-01T19:01:01.355Z,6.47
2023-03-01T19:03:28.919Z,7.28
2023-03-01T19:05:56.981Z,9.57
2023-03-01T19:08:24.188Z,8.80
2023-03-01T19:11:01.544Z,7.78
2023-03-01T19:13:28.771Z,9.23
2023-03-01T19:16:18.974Z,7.75
2023-03-01T19:21:21.284Z,7.43
2023-03-01T19:23:49.156Z,8.20
2023-03-01T19:26:18.000Z,11.15
2023-03-01T19:28:45.491Z,6.85
2023-03-01T19:31:14.190Z,9.80
2023-03-01T19:33:41.729Z,12.82
2023-03-01T19:36:09.827Z,10.55
2023-03-01T19:38:37.768Z,8.88
2023-03-01T19:41:06.145Z,11.65
2023-03-01T19:43:33.447Z,12.20
2023-03-01T19:46:00.663Z,8.18
2023-03-01T19:48:28.351Z,10.55
2023-03-01T19:50:58.525Z,8.15
2023-03-01T19:55:59.173Z,8.88
2023-03-01T19:58:32.795Z,7.18
2023-03-01T20:01:00.650Z,9.02
2023-03-01T20:03:30.921Z,7.50
2023-03-01T20:05:58.514Z,7.53
2023-03-01T20:08:26.131Z,8.27
2023-03-01T20:10:53.312Z,7.18
2023-03-01T20:13:23.416Z,6.80
2023-03-01T20:15:52.787Z,8.82
2023-03-01T20:18:19.928Z,6.93
2023-03-01T20:20:50.267Z,8.27
2023-03-01T20:23:18.200Z,11.70
2023-03-01T20:25:46.044Z,8.65
2023-03-01T20:28:12.870Z,7.25
2023-03-01T20:30:43.497Z,8.85
2023-03-01T20:33:11.302Z,10.30
2023-03-01T20:35:46.106Z,8.50
2023-03-01T20:38:12.809Z,11.48
2023-03-01T20:40:39.561Z,9.27
2023-03-01T20:43:06.692Z,9.18
2023-03-01T20:45:33.794Z,13.15
2023-03-01T20:48:04.990Z,10.50
2023-03-01T20:50:31.716Z,13.70
2023-03-01T20:53:02.831Z,13.23
2023-03-01T20:55:29.547Z,13.95
2023-03-01T20:57:58.584Z,10.75
2023-03-01T21:00:27.286Z,13.57
2023-03-01T21:02:54.867Z,13.02
2023-03-01T21:05:22.707Z,13.43
2023-03-01T21:07:50.899Z,13.18
2023-03-01T21:10:19.927Z,13.43
2023-03-01T21:12:46.648Z,18.05
2023-03-01T21:15:27.043Z,10.85
2023-03-01T21:17:55.692Z,12.75
2023-03-01T21:20:24.663Z,12.90
2023-03-01T21:22:51.398Z,10.00
2023-03-01T21:25:18.145Z,15.52
2023-03-01T21:27:45.407Z,11.63
2023-03-01T21:30:12.814Z,14.35
2023-03-01T21:32:39.520Z,11.93
2023-03-01T21:35:06.573Z,11.88
2023-03-01T21:37:33.310Z,11.57
2023-03-01T21:40:00.053Z,13.25
2023-03-01T21:42:26.739Z,12.30
2023-03-01T21:44:53.424Z,12.80
2023-03-01T21:47:23.153Z,13.00
2023-03-01T21:49:49.847Z,11.90
2023-03-01T21:52:16.855Z,11.13
2023-03-01T21:54:44.583Z,12.38
2023-03-01T21:57:12.124Z,13.27
2023-03-01T21:59:39.123Z,12.23
2023-03-01T22:02:05.986Z,12.40
2023-03-01T22:04:32.851Z,12.15
2023-03-01T22:06:59.945Z,14.45
2023-03-01T22:09:26.738Z,11.80
2023-03-01T22:11:58.693Z,16.35
2023-03-01T22:14:27.612Z,15.15
2023-03-01T22:16:57.430Z,13.95
2023-03-01T22:19:24.363Z,13.30
2023-03-01T22:21:52.289Z,13.60
2023-03-01T22:24:24.193Z,14.93
2023-03-01T22:26:52.190Z,12.80
2023-03-01T22:29:27.338Z,14.48
2023-03-01T22:31:55.883Z,11.20
2023-03-01T22:34:22.864Z,10.80
2023-03-01T22:36:52.358Z,13.73
2023-03-01T22:39:20.466Z,15.93
2023-03-01T22:41:48.881Z,11.40
2023-03-01T22:44:19.427Z,11.27
2023-03-01T22:46:47.129Z,13.18
2023-03-01T22:49:14.474Z,16.30
2023-03-01T22:51:42.587Z,14.00
2023-03-01T22:54:13.231Z,14.23
2023-03-01T22:56:43.053Z,15.82
2023-03-01T22:59:12.552Z,14.73
2023-03-01T23:01:40.497Z,16.30
2023-03-01T23:04:07.932Z,12.98
2023-03-01T23:06:35.621Z,14.65
2023-03-01T23:09:06.836Z,14.15
2023-03-01T23:11:33.977Z,12.27
2023-03-01T23:14:01.050Z,12.88
2023-03-01T23:16:30.642Z,15.00
2023-03-01T23:19:01.080Z,17.52
2023-03-01T23:23:55.627Z,12.70
2023-03-01T23:26:22.859Z,16.35
2023-03-01T23:28:50.791Z,13.15
2023-03-01T23:31:18.106Z,15.40
2023-03-01T23:33:45.965Z,14.63
2023-03-01T23:36:26.751Z,14.77
2023-03-01T23:38:56.336Z,17.80
2023-03-01T23:41:24.820Z,15.23
2023-03-01T23:43:55.827Z,14.73
2023-03-01T23:46:26.227Z,13.27
2023-03-01T23:48:54.199Z,15.20
2023-03-01T23:51:21.742Z,16.23
2023-03-01T23:53:55.709Z,14.95
2023-03-01T23:56:27.142Z,14.85
2023-03-01T23:58:58.583Z,14.85
